Terminal Aerodrome Forecast
Issued by NWS Jackson, MS

Home | Current Version | Previous Version | Text Only | Print | Product List | Glossary On
Versions: 1 2 3 4 5 6 7 8 9 10 11 12 13 14 15 16 17 18 19 20 21
180
FTUS44 KJAN 231720
TAFGLH
TAF
KGLH 231720Z 2318/2418 18012G16KT P6SM FEW050 FEW250
     FM240000 19008KT P6SM BKN250=

USA.gov is the U.S. government's official web portal to all federal, state and local government web resources and services.